sensor_id;sensor_type;location;lat;lon;timestamp;P1;durP1;ratioP1;P2;durP2;ratioP2
21356;SDS011;10836;53.068;18.234;2022-10-23T00:01:26;68.20;;;28.92;;
21356;SDS011;10836;53.068;18.234;2022-10-23T00:03:56;69.90;;;28.52;;
21356;SDS011;10836;53.068;18.234;2022-10-23T00:06:24;79.72;;;28.75;;
21356;SDS011;10836;53.068;18.234;2022-10-23T00:08:52;74.97;;;27.67;;
21356;SDS011;10836;53.068;18.234;2022-10-23T00:11:21;74.73;;;29.67;;
21356;SDS011;10836;53.068;18.234;2022-10-23T00:13:50;82.73;;;31.97;;
21356;SDS011;10836;53.068;18.234;2022-10-23T00:16:19;75.70;;;29.50;;
21356;SDS011;10836;53.068;18.234;2022-10-23T00:18:46;68.73;;;27.87;;
21356;SDS011;10836;53.068;18.234;2022-10-23T00:21:14;69.03;;;27.95;;
21356;SDS011;10836;53.068;18.234;2022-10-23T00:23:43;70.90;;;29.17;;
21356;SDS011;10836;53.068;18.234;2022-10-23T00:26:11;78.67;;;28.63;;
21356;SDS011;10836;53.068;18.234;2022-10-23T00:28:42;64.20;;;27.87;;
21356;SDS011;10836;53.068;18.234;2022-10-23T00:31:10;64.40;;;28.05;;
21356;SDS011;10836;53.068;18.234;2022-10-23T00:33:40;70.93;;;28.40;;
21356;SDS011;10836;53.068;18.234;2022-10-23T00:36:09;62.33;;;26.30;;
21356;SDS011;10836;53.068;18.234;2022-10-23T00:38:37;75.78;;;28.15;;
21356;SDS011;10836;53.068;18.234;2022-10-23T00:41:05;64.33;;;28.40;;
21356;SDS011;10836;53.068;18.234;2022-10-23T00:43:34;64.93;;;27.13;;
21356;SDS011;10836;53.068;18.234;2022-10-23T00:46:01;64.47;;;27.13;;
21356;SDS011;10836;53.068;18.234;2022-10-23T00:48:28;63.42;;;27.55;;
21356;SDS011;10836;53.068;18.234;2022-10-23T00:50:55;71.85;;;30.83;;
21356;SDS011;10836;53.068;18.234;2022-10-23T00:53:23;69.05;;;29.13;;
21356;SDS011;10836;53.068;18.234;2022-10-23T00:55:50;63.63;;;28.27;;
21356;SDS011;10836;53.068;18.234;2022-10-23T00:58:20;68.97;;;28.73;;
21356;SDS011;10836;53.068;18.234;2022-10-23T01:03:18;78.75;;;31.13;;
21356;SDS011;10836;53.068;18.234;2022-10-23T01:06:08;84.50;;;32.00;;
21356;SDS011;10836;53.068;18.234;2022-10-23T01:11:46;76.10;;;30.10;;
21356;SDS011;10836;53.068;18.234;2022-10-23T01:17:17;75.20;;;29.83;;
21356;SDS011;10836;53.068;18.234;2022-10-23T01:28:38;74.20;;;29.93;;
21356;SDS011;10836;53.068;18.234;2022-10-23T01:31:10;78.13;;;30.53;;
21356;SDS011;10836;53.068;18.234;2022-10-23T01:33:46;69.03;;;28.87;;
21356;SDS011;10836;53.068;18.234;2022-10-23T01:36:24;75.00;;;27.30;;
21356;SDS011;10836;53.068;18.234;2022-10-23T01:41:45;76.53;;;30.97;;
21356;SDS011;10836;53.068;18.234;2022-10-23T01:46:59;65.67;;;27.57;;
21356;SDS011;10836;53.068;18.234;2022-10-23T01:49:32;70.77;;;29.23;;
21356;SDS011;10836;53.068;18.234;2022-10-23T01:52:01;71.40;;;29.03;;
21356;SDS011;10836;53.068;18.234;2022-10-23T01:54:32;72.50;;;28.93;;
21356;SDS011;10836;53.068;18.234;2022-10-23T01:57:04;83.40;;;31.27;;
21356;SDS011;10836;53.068;18.234;2022-10-23T01:59:36;72.10;;;30.47;;
21356;SDS011;10836;53.068;18.234;2022-10-23T02:02:07;76.97;;;30.63;;
21356;SDS011;10836;53.068;18.234;2022-10-23T02:04:41;79.67;;;32.23;;
21356;SDS011;10836;53.068;18.234;2022-10-23T02:07:15;81.70;;;31.27;;
21356;SDS011;10836;53.068;18.234;2022-10-23T02:09:42;85.47;;;31.40;;
21356;SDS011;10836;53.068;18.234;2022-10-23T02:12:12;90.30;;;34.37;;
21356;SDS011;10836;53.068;18.234;2022-10-23T02:14:57;90.50;;;34.23;;
21356;SDS011;10836;53.068;18.234;2022-10-23T02:25:32;92.43;;;35.13;;
21356;SDS011;10836;53.068;18.234;2022-10-23T02:28:09;104.90;;;36.50;;
21356;SDS011;10836;53.068;18.234;2022-10-23T02:30:43;94.67;;;34.57;;
21356;SDS011;10836;53.068;18.234;2022-10-23T02:33:13;101.73;;;36.37;;
21356;SDS011;10836;53.068;18.234;2022-10-23T02:35:43;98.03;;;35.97;;
21356;SDS011;10836;53.068;18.234;2022-10-23T02:41:06;114.40;;;37.70;;
21356;SDS011;10836;53.068;18.234;2022-10-23T02:52:10;108.53;;;36.90;;
21356;SDS011;10836;53.068;18.234;2022-10-23T03:00:03;116.93;;;35.90;;
21356;SDS011;10836;53.068;18.234;2022-10-23T03:02:40;103.50;;;35.40;;
21356;SDS011;10836;53.068;18.234;2022-10-23T03:05:15;115.50;;;36.30;;
21356;SDS011;10836;53.068;18.234;2022-10-23T03:07:47;126.10;;;38.30;;
21356;SDS011;10836;53.068;18.234;2022-10-23T03:10:16;110.77;;;35.77;;
21356;SDS011;10836;53.068;18.234;2022-10-23T03:12:43;93.00;;;33.77;;
21356;SDS011;10836;53.068;18.234;2022-10-23T03:15:10;104.30;;;34.97;;
21356;SDS011;10836;53.068;18.234;2022-10-23T03:17:38;102.63;;;35.90;;
21356;SDS011;10836;53.068;18.234;2022-10-23T03:20:06;108.57;;;35.57;;
21356;SDS011;10836;53.068;18.234;2022-10-23T03:22:34;103.88;;;34.75;;
21356;SDS011;10836;53.068;18.234;2022-10-23T03:25:02;103.13;;;34.20;;
21356;SDS011;10836;53.068;18.234;2022-10-23T03:27:31;95.13;;;34.03;;
21356;SDS011;10836;53.068;18.234;2022-10-23T03:30:02;91.97;;;32.03;;
21356;SDS011;10836;53.068;18.234;2022-10-23T03:32:32;109.10;;;33.37;;
21356;SDS011;10836;53.068;18.234;2022-10-23T03:34:59;98.50;;;32.90;;
21356;SDS011;10836;53.068;18.234;2022-10-23T03:37:26;109.77;;;32.70;;
21356;SDS011;10836;53.068;18.234;2022-10-23T03:39:53;86.87;;;30.90;;
21356;SDS011;10836;53.068;18.234;2022-10-23T03:42:21;92.03;;;30.93;;
21356;SDS011;10836;53.068;18.234;2022-10-23T03:44:48;93.73;;;32.63;;
21356;SDS011;10836;53.068;18.234;2022-10-23T03:47:17;100.20;;;32.87;;
21356;SDS011;10836;53.068;18.234;2022-10-23T03:49:44;80.33;;;28.97;;
21356;SDS011;10836;53.068;18.234;2022-10-23T03:52:11;84.77;;;30.47;;
21356;SDS011;10836;53.068;18.234;2022-10-23T03:54:38;89.33;;;31.23;;
21356;SDS011;10836;53.068;18.234;2022-10-23T03:57:05;99.55;;;30.60;;
21356;SDS011;10836;53.068;18.234;2022-10-23T03:59:32;84.60;;;29.57;;
21356;SDS011;10836;53.068;18.234;2022-10-23T04:01:59;80.32;;;28.13;;
21356;SDS011;10836;53.068;18.234;2022-10-23T04:04:26;96.20;;;31.10;;
21356;SDS011;10836;53.068;18.234;2022-10-23T04:06:53;80.80;;;29.17;;
21356;SDS011;10836;53.068;18.234;2022-10-23T04:09:21;82.73;;;31.33;;
21356;SDS011;10836;53.068;18.234;2022-10-23T04:11:47;90.53;;;30.50;;
21356;SDS011;10836;53.068;18.234;2022-10-23T04:14:15;95.97;;;32.23;;
21356;SDS011;10836;53.068;18.234;2022-10-23T04:16:42;85.83;;;31.13;;
21356;SDS011;10836;53.068;18.234;2022-10-23T04:19:09;85.23;;;32.80;;
21356;SDS011;10836;53.068;18.234;2022-10-23T04:21:36;87.17;;;30.80;;
21356;SDS011;10836;53.068;18.234;2022-10-23T04:24:03;76.93;;;29.80;;
21356;SDS011;10836;53.068;18.234;2022-10-23T04:26:31;77.00;;;30.33;;
21356;SDS011;10836;53.068;18.234;2022-10-23T04:28:58;83.00;;;31.50;;
21356;SDS011;10836;53.068;18.234;2022-10-23T04:31:27;89.57;;;32.57;;
21356;SDS011;10836;53.068;18.234;2022-10-23T04:33:54;74.83;;;28.37;;
21356;SDS011;10836;53.068;18.234;2022-10-23T04:36:28;85.40;;;32.17;;
21356;SDS011;10836;53.068;18.234;2022-10-23T04:38:57;76.63;;;30.23;;
21356;SDS011;10836;53.068;18.234;2022-10-23T04:41:24;82.10;;;31.83;;
21356;SDS011;10836;53.068;18.234;2022-10-23T04:43:52;76.83;;;31.53;;
21356;SDS011;10836;53.068;18.234;2022-10-23T04:46:19;77.43;;;32.63;;
21356;SDS011;10836;53.068;18.234;2022-10-23T04:48:48;68.33;;;29.77;;
21356;SDS011;10836;53.068;18.234;2022-10-23T04:51:44;63.87;;;28.27;;
21356;SDS011;10836;53.068;18.234;2022-10-23T04:54:43;78.33;;;31.60;;
21356;SDS011;10836;53.068;18.234;2022-10-23T04:57:40;66.13;;;27.77;;
21356;SDS011;10836;53.068;18.234;2022-10-23T05:00:10;84.17;;;31.70;;
21356;SDS011;10836;53.068;18.234;2022-10-23T05:02:44;70.17;;;29.33;;
21356;SDS011;10836;53.068;18.234;2022-10-23T05:05:13;65.73;;;28.10;;
21356;SDS011;10836;53.068;18.234;2022-10-23T05:07:56;67.13;;;30.37;;
21356;SDS011;10836;53.068;18.234;2022-10-23T05:10:34;56.70;;;26.77;;
21356;SDS011;10836;53.068;18.234;2022-10-23T05:13:07;63.33;;;29.13;;
21356;SDS011;10836;53.068;18.234;2022-10-23T05:15:35;58.30;;;29.37;;
21356;SDS011;10836;53.068;18.234;2022-10-23T05:18:06;59.20;;;26.97;;
21356;SDS011;10836;53.068;18.234;2022-10-23T05:20:39;62.57;;;27.33;;
21356;SDS011;10836;53.068;18.234;2022-10-23T05:23:09;59.57;;;26.80;;
21356;SDS011;10836;53.068;18.234;2022-10-23T05:25:40;59.17;;;27.03;;
21356;SDS011;10836;53.068;18.234;2022-10-23T05:28:13;58.43;;;26.63;;
21356;SDS011;10836;53.068;18.234;2022-10-23T05:30:40;61.43;;;25.77;;
21356;SDS011;10836;53.068;18.234;2022-10-23T05:33:08;58.97;;;26.30;;
21356;SDS011;10836;53.068;18.234;2022-10-23T05:35:40;64.33;;;29.03;;
21356;SDS011;10836;53.068;18.234;2022-10-23T05:38:11;60.77;;;27.63;;
21356;SDS011;10836;53.068;18.234;2022-10-23T05:40:40;66.37;;;29.23;;
21356;SDS011;10836;53.068;18.234;2022-10-23T05:43:12;73.00;;;31.07;;
21356;SDS011;10836;53.068;18.234;2022-10-23T05:45:49;59.07;;;27.97;;
21356;SDS011;10836;53.068;18.234;2022-10-23T05:48:34;70.37;;;29.93;;
21356;SDS011;10836;53.068;18.234;2022-10-23T05:51:21;62.23;;;28.87;;
21356;SDS011;10836;53.068;18.234;2022-10-23T05:54:27;61.10;;;28.97;;
21356;SDS011;10836;53.068;18.234;2022-10-23T05:57:01;64.00;;;28.17;;
21356;SDS011;10836;53.068;18.234;2022-10-23T05:59:41;56.87;;;28.90;;
21356;SDS011;10836;53.068;18.234;2022-10-23T06:02:26;64.47;;;28.83;;
21356;SDS011;10836;53.068;18.234;2022-10-23T06:05:03;65.00;;;29.50;;
21356;SDS011;10836;53.068;18.234;2022-10-23T06:07:47;58.37;;;26.70;;
21356;SDS011;10836;53.068;18.234;2022-10-23T06:10:14;62.97;;;29.93;;
21356;SDS011;10836;53.068;18.234;2022-10-23T06:12:45;68.53;;;29.07;;
21356;SDS011;10836;53.068;18.234;2022-10-23T06:15:15;59.87;;;28.77;;
21356;SDS011;10836;53.068;18.234;2022-10-23T06:18:14;55.70;;;27.83;;
21356;SDS011;10836;53.068;18.234;2022-10-23T06:20:52;56.33;;;27.47;;
21356;SDS011;10836;53.068;18.234;2022-10-23T06:23:23;64.40;;;28.57;;
21356;SDS011;10836;53.068;18.234;2022-10-23T06:26:10;56.47;;;26.30;;
21356;SDS011;10836;53.068;18.234;2022-10-23T06:28:57;57.23;;;27.30;;
21356;SDS011;10836;53.068;18.234;2022-10-23T06:31:25;52.60;;;26.80;;
21356;SDS011;10836;53.068;18.234;2022-10-23T06:33:56;57.03;;;26.60;;
21356;SDS011;10836;53.068;18.234;2022-10-23T06:36:25;56.80;;;26.83;;
21356;SDS011;10836;53.068;18.234;2022-10-23T06:39:00;57.10;;;27.37;;
21356;SDS011;10836;53.068;18.234;2022-10-23T06:41:47;52.90;;;28.07;;
21356;SDS011;10836;53.068;18.234;2022-10-23T06:44:34;56.27;;;28.77;;
21356;SDS011;10836;53.068;18.234;2022-10-23T06:47:07;55.77;;;26.50;;
21356;SDS011;10836;53.068;18.234;2022-10-23T06:49:55;51.13;;;25.77;;
21356;SDS011;10836;53.068;18.234;2022-10-23T06:52:22;48.53;;;26.33;;
21356;SDS011;10836;53.068;18.234;2022-10-23T06:55:09;49.60;;;26.77;;
21356;SDS011;10836;53.068;18.234;2022-10-23T06:57:37;48.70;;;24.07;;
21356;SDS011;10836;53.068;18.234;2022-10-23T07:00:04;48.97;;;25.53;;
21356;SDS011;10836;53.068;18.234;2022-10-23T07:02:41;48.63;;;24.00;;
21356;SDS011;10836;53.068;18.234;2022-10-23T07:05:08;49.03;;;24.47;;
21356;SDS011;10836;53.068;18.234;2022-10-23T07:07:41;42.87;;;24.67;;
21356;SDS011;10836;53.068;18.234;2022-10-23T07:10:10;48.43;;;24.07;;
21356;SDS011;10836;53.068;18.234;2022-10-23T07:12:40;42.63;;;22.60;;
21356;SDS011;10836;53.068;18.234;2022-10-23T07:15:28;47.47;;;24.20;;
21356;SDS011;10836;53.068;18.234;2022-10-23T07:17:56;52.97;;;25.60;;
21356;SDS011;10836;53.068;18.234;2022-10-23T07:20:27;49.00;;;25.60;;
21356;SDS011;10836;53.068;18.234;2022-10-23T07:22:54;51.23;;;23.80;;
21356;SDS011;10836;53.068;18.234;2022-10-23T07:25:29;43.53;;;24.20;;
21356;SDS011;10836;53.068;18.234;2022-10-23T07:27:58;44.73;;;23.13;;
21356;SDS011;10836;53.068;18.234;2022-10-23T07:30:28;42.23;;;23.73;;
21356;SDS011;10836;53.068;18.234;2022-10-23T07:32:57;47.33;;;24.80;;
21356;SDS011;10836;53.068;18.234;2022-10-23T07:35:38;51.90;;;27.05;;
21356;SDS011;10836;53.068;18.234;2022-10-23T07:38:10;47.65;;;25.73;;
21356;SDS011;10836;53.068;18.234;2022-10-23T07:40:43;48.17;;;25.45;;
21356;SDS011;10836;53.068;18.234;2022-10-23T07:43:14;43.22;;;24.00;;
21356;SDS011;10836;53.068;18.234;2022-10-23T07:45:45;47.03;;;24.30;;
21356;SDS011;10836;53.068;18.234;2022-10-23T07:48:19;39.20;;;22.60;;
21356;SDS011;10836;53.068;18.234;2022-10-23T07:51:00;39.30;;;22.67;;
21356;SDS011;10836;53.068;18.234;2022-10-23T07:53:37;39.97;;;23.05;;
21356;SDS011;10836;53.068;18.234;2022-10-23T07:56:24;50.10;;;25.45;;
21356;SDS011;10836;53.068;18.234;2022-10-23T07:59:14;44.63;;;24.90;;
21356;SDS011;10836;53.068;18.234;2022-10-23T08:01:48;42.17;;;23.67;;
21356;SDS011;10836;53.068;18.234;2022-10-23T08:04:23;41.13;;;23.97;;
21356;SDS011;10836;53.068;18.234;2022-10-23T08:06:58;45.87;;;24.70;;
21356;SDS011;10836;53.068;18.234;2022-10-23T08:09:30;41.60;;;23.03;;
21356;SDS011;10836;53.068;18.234;2022-10-23T08:11:58;44.30;;;23.80;;
21356;SDS011;10836;53.068;18.234;2022-10-23T08:14:26;44.30;;;24.73;;
21356;SDS011;10836;53.068;18.234;2022-10-23T08:16:54;41.00;;;24.43;;
21356;SDS011;10836;53.068;18.234;2022-10-23T08:19:41;40.47;;;23.00;;
21356;SDS011;10836;53.068;18.234;2022-10-23T08:22:13;40.63;;;23.10;;
21356;SDS011;10836;53.068;18.234;2022-10-23T08:24:40;42.17;;;24.67;;
21356;SDS011;10836;53.068;18.234;2022-10-23T08:27:08;39.27;;;23.57;;
21356;SDS011;10836;53.068;18.234;2022-10-23T08:29:41;39.00;;;23.05;;
21356;SDS011;10836;53.068;18.234;2022-10-23T08:32:08;40.88;;;23.23;;
21356;SDS011;10836;53.068;18.234;2022-10-23T08:34:53;39.42;;;22.17;;
21356;SDS011;10836;53.068;18.234;2022-10-23T08:37:23;36.20;;;22.55;;
21356;SDS011;10836;53.068;18.234;2022-10-23T08:39:51;41.72;;;22.65;;
21356;SDS011;10836;53.068;18.234;2022-10-23T08:42:26;41.58;;;22.13;;
21356;SDS011;10836;53.068;18.234;2022-10-23T08:50:48;34.60;;;21.75;;
21356;SDS011;10836;53.068;18.234;2022-10-23T08:53:21;36.10;;;20.20;;
21356;SDS011;10836;53.068;18.234;2022-10-23T08:56:06;34.17;;;20.08;;
21356;SDS011;10836;53.068;18.234;2022-10-23T08:58:47;36.25;;;20.05;;
21356;SDS011;10836;53.068;18.234;2022-10-23T09:01:46;33.88;;;19.48;;
21356;SDS011;10836;53.068;18.234;2022-10-23T09:04:18;33.67;;;19.23;;
21356;SDS011;10836;53.068;18.234;2022-10-23T09:06:58;37.25;;;18.73;;
21356;SDS011;10836;53.068;18.234;2022-10-23T09:12:15;40.63;;;19.95;;
21356;SDS011;10836;53.068;18.234;2022-10-23T09:14:54;31.65;;;19.73;;
21356;SDS011;10836;53.068;18.234;2022-10-23T09:17:25;32.97;;;20.15;;
21356;SDS011;10836;53.068;18.234;2022-10-23T09:20:00;36.35;;;20.20;;
21356;SDS011;10836;53.068;18.234;2022-10-23T09:22:33;30.08;;;19.83;;
21356;SDS011;10836;53.068;18.234;2022-10-23T09:25:01;35.78;;;21.90;;
21356;SDS011;10836;53.068;18.234;2022-10-23T09:27:28;39.00;;;22.23;;
21356;SDS011;10836;53.068;18.234;2022-10-23T09:29:55;34.17;;;21.55;;
21356;SDS011;10836;53.068;18.234;2022-10-23T09:32:34;39.08;;;21.80;;
21356;SDS011;10836;53.068;18.234;2022-10-23T09:35:04;34.70;;;22.08;;
21356;SDS011;10836;53.068;18.234;2022-10-23T09:37:32;35.22;;;22.38;;
21356;SDS011;10836;53.068;18.234;2022-10-23T09:40:18;37.40;;;22.10;;
21356;SDS011;10836;53.068;18.234;2022-10-23T09:42:52;38.08;;;23.60;;
21356;SDS011;10836;53.068;18.234;2022-10-23T09:45:23;40.87;;;23.33;;
21356;SDS011;10836;53.068;18.234;2022-10-23T09:48:07;43.60;;;24.63;;
21356;SDS011;10836;53.068;18.234;2022-10-23T09:50:41;43.65;;;25.52;;
21356;SDS011;10836;53.068;18.234;2022-10-23T09:53:25;40.08;;;24.35;;
21356;SDS011;10836;53.068;18.234;2022-10-23T09:55:58;41.03;;;24.27;;
21356;SDS011;10836;53.068;18.234;2022-10-23T09:58:32;43.53;;;25.10;;
21356;SDS011;10836;53.068;18.234;2022-10-23T10:01:02;38.22;;;25.05;;
21356;SDS011;10836;53.068;18.234;2022-10-23T10:03:49;38.75;;;25.23;;
21356;SDS011;10836;53.068;18.234;2022-10-23T10:06:22;40.85;;;24.02;;
21356;SDS011;10836;53.068;18.234;2022-10-23T10:08:52;36.88;;;21.88;;
21356;SDS011;10836;53.068;18.234;2022-10-23T10:13:56;36.15;;;20.45;;
21356;SDS011;10836;53.068;18.234;2022-10-23T10:19:17;38.30;;;20.58;;
21356;SDS011;10836;53.068;18.234;2022-10-23T10:22:10;38.42;;;20.38;;
21356;SDS011;10836;53.068;18.234;2022-10-23T10:27:55;34.58;;;19.42;;
21356;SDS011;10836;53.068;18.234;2022-10-23T10:30:27;30.05;;;17.38;;
21356;SDS011;10836;53.068;18.234;2022-10-23T10:33:24;30.33;;;19.05;;
21356;SDS011;10836;53.068;18.234;2022-10-23T10:47:21;26.52;;;17.50;;
21356;SDS011;10836;53.068;18.234;2022-10-23T10:53:23;23.35;;;13.90;;
21356;SDS011;10836;53.068;18.234;2022-10-23T10:56:00;22.92;;;14.05;;
21356;SDS011;10836;53.068;18.234;2022-10-23T10:58:41;21.60;;;12.90;;
21356;SDS011;10836;53.068;18.234;2022-10-23T11:04:03;20.88;;;11.70;;
21356;SDS011;10836;53.068;18.234;2022-10-23T11:06:39;21.38;;;12.13;;
21356;SDS011;10836;53.068;18.234;2022-10-23T11:09:13;21.70;;;12.43;;
21356;SDS011;10836;53.068;18.234;2022-10-23T11:11:47;18.65;;;12.88;;
21356;SDS011;10836;53.068;18.234;2022-10-23T11:14:27;23.13;;;13.00;;
21356;SDS011;10836;53.068;18.234;2022-10-23T11:17:14;22.05;;;13.57;;
21356;SDS011;10836;53.068;18.234;2022-10-23T11:22:53;16.15;;;11.48;;
21356;SDS011;10836;53.068;18.234;2022-10-23T11:28:27;14.35;;;10.60;;
21356;SDS011;10836;53.068;18.234;2022-10-23T11:37:19;23.52;;;12.68;;
21356;SDS011;10836;53.068;18.234;2022-10-23T11:40:12;20.25;;;11.55;;
21356;SDS011;10836;53.068;18.234;2022-10-23T11:42:48;24.00;;;12.23;;
21356;SDS011;10836;53.068;18.234;2022-10-23T11:48:22;18.63;;;10.18;;
21356;SDS011;10836;53.068;18.234;2022-10-23T11:56:52;16.27;;;11.07;;
21356;SDS011;10836;53.068;18.234;2022-10-23T11:59:26;22.15;;;11.43;;
21356;SDS011;10836;53.068;18.234;2022-10-23T12:01:57;18.35;;;11.68;;
21356;SDS011;10836;53.068;18.234;2022-10-23T12:04:29;18.85;;;12.57;;
21356;SDS011;10836;53.068;18.234;2022-10-23T12:07:14;20.27;;;12.60;;
21356;SDS011;10836;53.068;18.234;2022-10-23T12:09:57;19.63;;;13.15;;
21356;SDS011;10836;53.068;18.234;2022-10-23T12:15:07;17.88;;;12.23;;
21356;SDS011;10836;53.068;18.234;2022-10-23T12:17:43;22.90;;;13.23;;
21356;SDS011;10836;53.068;18.234;2022-10-23T12:20:22;19.65;;;11.27;;
21356;SDS011;10836;53.068;18.234;2022-10-23T12:25:30;24.27;;;11.75;;
21356;SDS011;10836;53.068;18.234;2022-10-23T12:39:36;21.30;;;11.82;;
21356;SDS011;10836;53.068;18.234;2022-10-23T12:42:21;21.63;;;13.63;;
21356;SDS011;10836;53.068;18.234;2022-10-23T12:44:59;23.20;;;13.05;;
21356;SDS011;10836;53.068;18.234;2022-10-23T12:47:47;20.13;;;12.65;;
21356;SDS011;10836;53.068;18.234;2022-10-23T12:50:28;25.40;;;14.05;;
21356;SDS011;10836;53.068;18.234;2022-10-23T12:52:57;19.95;;;12.95;;
21356;SDS011;10836;53.068;18.234;2022-10-23T12:55:45;22.58;;;12.65;;
21356;SDS011;10836;53.068;18.234;2022-10-23T12:58:22;20.27;;;13.52;;
21356;SDS011;10836;53.068;18.234;2022-10-23T13:01:03;23.95;;;13.98;;
21356;SDS011;10836;53.068;18.234;2022-10-23T13:03:32;22.08;;;12.75;;
21356;SDS011;10836;53.068;18.234;2022-10-23T13:06:04;25.98;;;12.18;;
21356;SDS011;10836;53.068;18.234;2022-10-23T13:08:33;17.92;;;10.57;;
21356;SDS011;10836;53.068;18.234;2022-10-23T13:11:25;16.40;;;9.50;;
21356;SDS011;10836;53.068;18.234;2022-10-23T13:13:56;13.63;;;9.07;;
21356;SDS011;10836;53.068;18.234;2022-10-23T13:16:25;14.88;;;9.25;;
21356;SDS011;10836;53.068;18.234;2022-10-23T13:18:52;13.73;;;9.02;;
21356;SDS011;10836;53.068;18.234;2022-10-23T13:21:21;15.40;;;9.55;;
21356;SDS011;10836;53.068;18.234;2022-10-23T13:23:50;15.30;;;9.68;;
21356;SDS011;10836;53.068;18.234;2022-10-23T13:28:56;17.08;;;9.60;;
21356;SDS011;10836;53.068;18.234;2022-10-23T13:31:33;22.30;;;10.60;;
21356;SDS011;10836;53.068;18.234;2022-10-23T13:36:29;15.38;;;9.73;;
21356;SDS011;10836;53.068;18.234;2022-10-23T13:41:37;15.98;;;9.23;;
21356;SDS011;10836;53.068;18.234;2022-10-23T13:44:06;16.30;;;8.73;;
21356;SDS011;10836;53.068;18.234;2022-10-23T13:46:37;20.48;;;9.80;;
21356;SDS011;10836;53.068;18.234;2022-10-23T13:49:04;15.85;;;8.80;;
21356;SDS011;10836;53.068;18.234;2022-10-23T13:51:36;19.75;;;8.50;;
21356;SDS011;10836;53.068;18.234;2022-10-23T13:54:11;18.38;;;9.65;;
21356;SDS011;10836;53.068;18.234;2022-10-23T13:56:40;15.63;;;8.68;;
21356;SDS011;10836;53.068;18.234;2022-10-23T13:59:09;16.60;;;8.23;;
21356;SDS011;10836;53.068;18.234;2022-10-23T14:01:36;13.40;;;6.97;;
21356;SDS011;10836;53.068;18.234;2022-10-23T14:04:04;18.88;;;8.32;;
21356;SDS011;10836;53.068;18.234;2022-10-23T14:06:32;15.38;;;8.60;;
21356;SDS011;10836;53.068;18.234;2022-10-23T14:08:59;13.23;;;9.02;;
21356;SDS011;10836;53.068;18.234;2022-10-23T14:11:27;18.25;;;10.02;;
21356;SDS011;10836;53.068;18.234;2022-10-23T14:13:54;20.55;;;9.60;;
21356;SDS011;10836;53.068;18.234;2022-10-23T14:16:21;16.05;;;9.05;;
21356;SDS011;10836;53.068;18.234;2022-10-23T14:18:48;18.05;;;9.38;;
21356;SDS011;10836;53.068;18.234;2022-10-23T14:21:17;21.20;;;9.95;;
21356;SDS011;10836;53.068;18.234;2022-10-23T14:23:47;18.85;;;10.10;;
21356;SDS011;10836;53.068;18.234;2022-10-23T14:26:16;17.48;;;9.45;;
21356;SDS011;10836;53.068;18.234;2022-10-23T14:28:50;17.45;;;10.38;;
21356;SDS011;10836;53.068;18.234;2022-10-23T14:31:19;21.35;;;10.65;;
21356;SDS011;10836;53.068;18.234;2022-10-23T14:33:49;16.65;;;10.18;;
21356;SDS011;10836;53.068;18.234;2022-10-23T14:36:19;17.27;;;10.73;;
21356;SDS011;10836;53.068;18.234;2022-10-23T14:38:46;21.40;;;10.55;;
21356;SDS011;10836;53.068;18.234;2022-10-23T14:41:15;17.88;;;10.20;;
21356;SDS011;10836;53.068;18.234;2022-10-23T14:43:43;20.23;;;11.18;;
21356;SDS011;10836;53.068;18.234;2022-10-23T14:46:14;20.00;;;10.10;;
21356;SDS011;10836;53.068;18.234;2022-10-23T14:48:42;19.95;;;9.95;;
21356;SDS011;10836;53.068;18.234;2022-10-23T14:51:24;16.80;;;10.05;;
21356;SDS011;10836;53.068;18.234;2022-10-23T14:53:57;19.70;;;11.43;;
21356;SDS011;10836;53.068;18.234;2022-10-23T14:56:28;15.38;;;10.68;;
21356;SDS011;10836;53.068;18.234;2022-10-23T14:58:57;19.80;;;12.55;;
21356;SDS011;10836;53.068;18.234;2022-10-23T15:03:56;25.60;;;13.38;;
21356;SDS011;10836;53.068;18.234;2022-10-23T15:06:23;17.70;;;12.35;;
21356;SDS011;10836;53.068;18.234;2022-10-23T15:08:51;21.42;;;14.02;;
21356;SDS011;10836;53.068;18.234;2022-10-23T15:11:23;23.60;;;13.05;;
21356;SDS011;10836;53.068;18.234;2022-10-23T15:13:50;22.10;;;13.52;;
21356;SDS011;10836;53.068;18.234;2022-10-23T15:16:18;27.67;;;14.38;;
21356;SDS011;10836;53.068;18.234;2022-10-23T15:18:44;25.10;;;14.00;;
21356;SDS011;10836;53.068;18.234;2022-10-23T15:21:12;21.77;;;13.40;;
21356;SDS011;10836;53.068;18.234;2022-10-23T15:23:41;26.45;;;13.52;;
21356;SDS011;10836;53.068;18.234;2022-10-23T15:26:14;22.05;;;13.93;;
21356;SDS011;10836;53.068;18.234;2022-10-23T15:28:46;21.65;;;12.40;;
21356;SDS011;10836;53.068;18.234;2022-10-23T15:33:55;24.35;;;12.30;;
21356;SDS011;10836;53.068;18.234;2022-10-23T15:36:23;21.25;;;13.20;;
21356;SDS011;10836;53.068;18.234;2022-10-23T15:38:50;19.40;;;11.73;;
21356;SDS011;10836;53.068;18.234;2022-10-23T15:41:22;21.33;;;13.35;;
21356;SDS011;10836;53.068;18.234;2022-10-23T15:43:53;23.80;;;12.93;;
21356;SDS011;10836;53.068;18.234;2022-10-23T15:46:20;22.88;;;13.98;;
21356;SDS011;10836;53.068;18.234;2022-10-23T15:48:47;23.27;;;14.57;;
21356;SDS011;10836;53.068;18.234;2022-10-23T15:51:14;19.87;;;13.87;;
21356;SDS011;10836;53.068;18.234;2022-10-23T15:53:41;23.67;;;12.20;;
21356;SDS011;10836;53.068;18.234;2022-10-23T15:56:08;19.52;;;12.57;;
21356;SDS011;10836;53.068;18.234;2022-10-23T15:58:35;21.43;;;12.93;;
21356;SDS011;10836;53.068;18.234;2022-10-23T16:01:02;21.58;;;12.32;;
21356;SDS011;10836;53.068;18.234;2022-10-23T16:03:34;22.50;;;12.97;;
21356;SDS011;10836;53.068;18.234;2022-10-23T16:06:04;21.83;;;14.37;;
21356;SDS011;10836;53.068;18.234;2022-10-23T16:08:33;25.80;;;16.38;;
21356;SDS011;10836;53.068;18.234;2022-10-23T16:11:01;23.67;;;15.17;;
21356;SDS011;10836;53.068;18.234;2022-10-23T16:13:29;28.03;;;13.13;;
21356;SDS011;10836;53.068;18.234;2022-10-23T16:15:56;29.20;;;15.03;;
21356;SDS011;10836;53.068;18.234;2022-10-23T16:18:23;21.03;;;14.10;;
21356;SDS011;10836;53.068;18.234;2022-10-23T16:20:50;26.47;;;16.07;;
21356;SDS011;10836;53.068;18.234;2022-10-23T16:23:20;24.20;;;15.53;;
21356;SDS011;10836;53.068;18.234;2022-10-23T16:25:48;23.40;;;14.77;;
21356;SDS011;10836;53.068;18.234;2022-10-23T16:28:15;22.13;;;14.57;;
21356;SDS011;10836;53.068;18.234;2022-10-23T16:30:42;28.97;;;16.83;;
21356;SDS011;10836;53.068;18.234;2022-10-23T16:33:09;23.73;;;16.88;;
21356;SDS011;10836;53.068;18.234;2022-10-23T16:35:37;31.77;;;21.57;;
21356;SDS011;10836;53.068;18.234;2022-10-23T16:38:13;33.73;;;21.60;;
21356;SDS011;10836;53.068;18.234;2022-10-23T16:40:40;37.67;;;22.20;;
21356;SDS011;10836;53.068;18.234;2022-10-23T16:43:25;30.13;;;17.03;;
21356;SDS011;10836;53.068;18.234;2022-10-23T16:48:33;34.53;;;21.20;;
21356;SDS011;10836;53.068;18.234;2022-10-23T16:51:07;38.03;;;22.30;;
21356;SDS011;10836;53.068;18.234;2022-10-23T16:53:36;35.17;;;20.70;;
21356;SDS011;10836;53.068;18.234;2022-10-23T16:56:04;40.90;;;23.53;;